Portada
METAR-TAF:

METAR-TAF

Aeroports :

Vientiane, Laos

latitud: 17-57N, longitud: 102-34E, altitud: 171 m

Observació

L'informe es va fer fa 5 hores i 13 minuts, a les 16:00 UTC
Vent 2 kt del Sud-Oest
Temperatura 27°C
Humitat 100%
Pressió 1005 hPa
Visibilitat: 4000 m
Núvols disperses a una alçada de 4000 ft
Cel ennuvolat a una alçada de 8300 ft
boirina

METAR: VLVT 141600Z 22002KT 4000 BR SCT040 BKN083 27/27 Q1005 NOSIG

Hora: 04:13 (21:13 UTC)

Pronòstic

L'informe es va fer fa 4 hores i 13 minuts, a les 17:00 UTC
Pronòstic vàlid del 14 a les 18 UTC al 15 a les 18 UTC
Vent 4 kt del Nord/Nord-Oest
Visibilitat: 8000 m
Núvols disperses a una alçada de 1600 ft
Cel ennuvolat a una alçada de 8300 ft
Temporalment
l' 14 a les 18 UTC al 14 a les 22 UTC
Visibilitat: 4000 m
Cel ennuvolat a una alçada de 4000 ft
Cel ennuvolat a una alçada de 8300 ft
boirina

TAF: VLVT 141700Z 1418/1518 34004KT 8000 SCT016 BKN083 TEMPO 1418/1422 4000 BR BKN040 BKN083

Observacions i pronòstics meteorològics de més de 4000 aeroports (METAR i TAF).

Les estacions disponibles són els punts grocs i vermells al mapa.

Posi el ratolí al punt desitjat per veure el nom de l'estació.

Feu clic per veure les observacions i els pronòstics meteorològics.

Per canviar el mapa: feu clic els botons verds amb una creu de color negre per apropar; al botó verd amb un guió per allunyar la imatge; o en les fletxes verdes per a mapes adjacents.


METAR-TAF: